sensor_id;sensor_type;location;lat;lon;timestamp;temperature;humidity
39751;DHT22;37579;51.074;17.004;2023-03-03T00:00:40;23.20;53.50
39751;DHT22;37579;51.074;17.004;2023-03-03T00:03:08;23.10;53.40
39751;DHT22;37579;51.074;17.004;2023-03-03T00:05:35;23.10;53.40
39751;DHT22;37579;51.074;17.004;2023-03-03T00:08:02;23.10;53.30
39751;DHT22;37579;51.074;17.004;2023-03-03T00:10:28;23.20;53.40
39751;DHT22;37579;51.074;17.004;2023-03-03T00:12:54;23.20;53.30
39751;DHT22;37579;51.074;17.004;2023-03-03T00:15:22;23.20;53.40
39751;DHT22;37579;51.074;17.004;2023-03-03T00:17:49;23.10;53.40
39751;DHT22;37579;51.074;17.004;2023-03-03T00:20:35;23.10;53.40
39751;DHT22;37579;51.074;17.004;2023-03-03T00:23:15;23.10;53.40
39751;DHT22;37579;51.074;17.004;2023-03-03T00:25:46;23.10;53.30
39751;DHT22;37579;51.074;17.004;2023-03-03T00:28:40;23.10;53.30
39751;DHT22;37579;51.074;17.004;2023-03-03T00:31:19;23.10;53.30
39751;DHT22;37579;51.074;17.004;2023-03-03T00:33:48;23.10;53.20
39751;DHT22;37579;51.074;17.004;2023-03-03T00:36:36;23.10;53.20
39751;DHT22;37579;51.074;17.004;2023-03-03T00:41:46;23.10;53.30
39751;DHT22;37579;51.074;17.004;2023-03-03T00:44:37;23.10;53.20
39751;DHT22;37579;51.074;17.004;2023-03-03T00:47:57;23.10;53.20
39751;DHT22;37579;51.074;17.004;2023-03-03T00:50:24;23.10;53.20
39751;DHT22;37579;51.074;17.004;2023-03-03T00:55:32;23.10;53.10
39751;DHT22;37579;51.074;17.004;2023-03-03T00:57:59;23.10;53.20
39751;DHT22;37579;51.074;17.004;2023-03-03T01:00:30;23.10;53.10
39751;DHT22;37579;51.074;17.004;2023-03-03T01:02:58;23.10;53.20
39751;DHT22;37579;51.074;17.004;2023-03-03T01:05:26;23.10;53.10
39751;DHT22;37579;51.074;17.004;2023-03-03T01:07:52;23.10;53.10
39751;DHT22;37579;51.074;17.004;2023-03-03T01:10:18;23.10;53.00
39751;DHT22;37579;51.074;17.004;2023-03-03T01:12:44;23.10;53.00
39751;DHT22;37579;51.074;17.004;2023-03-03T01:15:11;23.10;53.00
39751;DHT22;37579;51.074;17.004;2023-03-03T01:17:37;23.10;52.90
39751;DHT22;37579;51.074;17.004;2023-03-03T01:20:07;23.10;52.90
39751;DHT22;37579;51.074;17.004;2023-03-03T01:22:33;23.10;53.60
39751;DHT22;37579;51.074;17.004;2023-03-03T01:24:59;23.10;53.00
39751;DHT22;37579;51.074;17.004;2023-03-03T01:27:25;23.10;52.90
39751;DHT22;37579;51.074;17.004;2023-03-03T01:29:52;23.10;52.90
39751;DHT22;37579;51.074;17.004;2023-03-03T01:32:18;23.10;52.90
39751;DHT22;37579;51.074;17.004;2023-03-03T01:34:44;23.10;52.80
39751;DHT22;37579;51.074;17.004;2023-03-03T01:37:10;23.00;52.80
39751;DHT22;37579;51.074;17.004;2023-03-03T01:39:35;23.10;52.80
39751;DHT22;37579;51.074;17.004;2023-03-03T01:42:02;23.10;52.80
39751;DHT22;37579;51.074;17.004;2023-03-03T01:44:28;23.10;52.70
39751;DHT22;37579;51.074;17.004;2023-03-03T01:47:20;23.10;52.70
39751;DHT22;37579;51.074;17.004;2023-03-03T01:50:04;23.10;52.70
39751;DHT22;37579;51.074;17.004;2023-03-03T01:52:40;23.10;52.70
39751;DHT22;37579;51.074;17.004;2023-03-03T01:55:21;23.10;52.70
39751;DHT22;37579;51.074;17.004;2023-03-03T01:57:57;23.00;53.20
39751;DHT22;37579;51.074;17.004;2023-03-03T02:00:25;23.10;52.70
39751;DHT22;37579;51.074;17.004;2023-03-03T02:02:52;23.00;52.50
39751;DHT22;37579;51.074;17.004;2023-03-03T02:05:18;23.00;52.50
39751;DHT22;37579;51.074;17.004;2023-03-03T02:07:44;23.10;52.60
39751;DHT22;37579;51.074;17.004;2023-03-03T02:10:13;23.00;52.50
39751;DHT22;37579;51.074;17.004;2023-03-03T02:12:47;23.00;52.50
39751;DHT22;37579;51.074;17.004;2023-03-03T02:17:51;23.00;52.40
39751;DHT22;37579;51.074;17.004;2023-03-03T02:22:57;23.00;52.40
39751;DHT22;37579;51.074;17.004;2023-03-03T02:28:15;23.00;52.40
39751;DHT22;37579;51.074;17.004;2023-03-03T02:30:41;23.00;52.40
39751;DHT22;37579;51.074;17.004;2023-03-03T02:33:08;23.00;52.40
39751;DHT22;37579;51.074;17.004;2023-03-03T02:35:37;23.00;52.30
39751;DHT22;37579;51.074;17.004;2023-03-03T02:38:28;23.00;52.30
39751;DHT22;37579;51.074;17.004;2023-03-03T02:43:39;23.00;52.30
39751;DHT22;37579;51.074;17.004;2023-03-03T02:46:06;23.00;52.20
39751;DHT22;37579;51.074;17.004;2023-03-03T02:48:31;23.00;52.20
39751;DHT22;37579;51.074;17.004;2023-03-03T02:50:57;23.00;52.20
39751;DHT22;37579;51.074;17.004;2023-03-03T02:53:23;23.00;52.10
39751;DHT22;37579;51.074;17.004;2023-03-03T02:55:51;23.00;52.10
39751;DHT22;37579;51.074;17.004;2023-03-03T02:58:17;23.00;52.20
39751;DHT22;37579;51.074;17.004;2023-03-03T03:00:43;23.00;52.20
39751;DHT22;37579;51.074;17.004;2023-03-03T03:03:14;23.00;52.20
39751;DHT22;37579;51.074;17.004;2023-03-03T03:05:41;23.00;52.20
39751;DHT22;37579;51.074;17.004;2023-03-03T03:08:06;23.00;52.10
39751;DHT22;37579;51.074;17.004;2023-03-03T03:10:36;23.00;52.00
39751;DHT22;37579;51.074;17.004;2023-03-03T03:13:03;23.00;52.00
39751;DHT22;37579;51.074;17.004;2023-03-03T03:15:29;23.00;52.10
39751;DHT22;37579;51.074;17.004;2023-03-03T03:17:55;23.00;52.10
39751;DHT22;37579;51.074;17.004;2023-03-03T03:20:21;23.00;52.00
39751;DHT22;37579;51.074;17.004;2023-03-03T03:22:47;23.00;52.00
39751;DHT22;37579;51.074;17.004;2023-03-03T03:25:13;23.00;52.00
39751;DHT22;37579;51.074;17.004;2023-03-03T03:27:39;23.00;52.00
39751;DHT22;37579;51.074;17.004;2023-03-03T03:30:05;23.00;52.00
39751;DHT22;37579;51.074;17.004;2023-03-03T03:32:31;23.00;51.90
39751;DHT22;37579;51.074;17.004;2023-03-03T03:34:57;23.00;51.90
39751;DHT22;37579;51.074;17.004;2023-03-03T03:37:23;23.00;52.00
39751;DHT22;37579;51.074;17.004;2023-03-03T03:39:49;23.00;51.90
39751;DHT22;37579;51.074;17.004;2023-03-03T03:42:17;23.00;51.90
39751;DHT22;37579;51.074;17.004;2023-03-03T03:44:43;22.90;51.80
39751;DHT22;37579;51.074;17.004;2023-03-03T03:47:08;23.00;51.80
39751;DHT22;37579;51.074;17.004;2023-03-03T03:49:35;23.00;51.80
39751;DHT22;37579;51.074;17.004;2023-03-03T03:52:01;23.00;51.80
39751;DHT22;37579;51.074;17.004;2023-03-03T03:54:29;22.90;51.80
39751;DHT22;37579;51.074;17.004;2023-03-03T03:56:56;23.00;51.80
39751;DHT22;37579;51.074;17.004;2023-03-03T03:59:22;23.00;51.70
39751;DHT22;37579;51.074;17.004;2023-03-03T04:01:48;23.00;51.50
39751;DHT22;37579;51.074;17.004;2023-03-03T04:04:15;23.00;51.40
39751;DHT22;37579;51.074;17.004;2023-03-03T04:06:41;23.00;51.30
39751;DHT22;37579;51.074;17.004;2023-03-03T04:09:07;23.00;51.30
39751;DHT22;37579;51.074;17.004;2023-03-03T04:11:33;23.00;51.20
39751;DHT22;37579;51.074;17.004;2023-03-03T04:14:02;23.00;51.20
39751;DHT22;37579;51.074;17.004;2023-03-03T04:16:28;23.00;51.10
39751;DHT22;37579;51.074;17.004;2023-03-03T04:18:54;23.00;51.10
39751;DHT22;37579;51.074;17.004;2023-03-03T04:21:21;23.00;51.10
39751;DHT22;37579;51.074;17.004;2023-03-03T04:23:48;23.00;51.10
39751;DHT22;37579;51.074;17.004;2023-03-03T04:26:14;23.10;51.00
39751;DHT22;37579;51.074;17.004;2023-03-03T04:28:42;23.10;51.00
39751;DHT22;37579;51.074;17.004;2023-03-03T04:31:09;23.00;50.90
39751;DHT22;37579;51.074;17.004;2023-03-03T04:33:35;23.00;51.00
39751;DHT22;37579;51.074;17.004;2023-03-03T04:36:03;23.00;51.00
39751;DHT22;37579;51.074;17.004;2023-03-03T04:38:29;23.00;51.00
39751;DHT22;37579;51.074;17.004;2023-03-03T04:40:56;23.00;51.10
39751;DHT22;37579;51.074;17.004;2023-03-03T04:43:23;23.00;51.10
39751;DHT22;37579;51.074;17.004;2023-03-03T04:45:49;23.00;51.10
39751;DHT22;37579;51.074;17.004;2023-03-03T04:48:16;23.00;51.20
39751;DHT22;37579;51.074;17.004;2023-03-03T04:50:42;23.00;51.20
39751;DHT22;37579;51.074;17.004;2023-03-03T04:53:09;23.00;51.20
39751;DHT22;37579;51.074;17.004;2023-03-03T04:55:36;23.00;51.20
39751;DHT22;37579;51.074;17.004;2023-03-03T04:58:03;23.00;51.30
39751;DHT22;37579;51.074;17.004;2023-03-03T05:00:30;23.00;51.30
39751;DHT22;37579;51.074;17.004;2023-03-03T05:02:56;23.00;51.20
39751;DHT22;37579;51.074;17.004;2023-03-03T05:05:22;23.00;51.30
39751;DHT22;37579;51.074;17.004;2023-03-03T05:07:48;23.00;51.30
39751;DHT22;37579;51.074;17.004;2023-03-03T05:10:14;22.90;51.30
39751;DHT22;37579;51.074;17.004;2023-03-03T05:12:40;23.00;51.40
39751;DHT22;37579;51.074;17.004;2023-03-03T05:15:06;23.00;51.30
39751;DHT22;37579;51.074;17.004;2023-03-03T05:17:32;23.00;51.30
39751;DHT22;37579;51.074;17.004;2023-03-03T05:19:58;23.00;51.10
39751;DHT22;37579;51.074;17.004;2023-03-03T05:22:23;23.10;51.70
39751;DHT22;37579;51.074;17.004;2023-03-03T05:24:49;23.10;51.00
39751;DHT22;37579;51.074;17.004;2023-03-03T05:27:15;23.10;50.90
39751;DHT22;37579;51.074;17.004;2023-03-03T05:29:41;23.20;50.90
39751;DHT22;37579;51.074;17.004;2023-03-03T05:32:07;23.20;50.80
39751;DHT22;37579;51.074;17.004;2023-03-03T05:34:33;23.20;50.70
39751;DHT22;37579;51.074;17.004;2023-03-03T05:36:59;23.30;50.60
39751;DHT22;37579;51.074;17.004;2023-03-03T05:39:25;23.30;50.50
39751;DHT22;37579;51.074;17.004;2023-03-03T05:41:50;23.30;50.50
39751;DHT22;37579;51.074;17.004;2023-03-03T05:44:16;23.30;50.50
39751;DHT22;37579;51.074;17.004;2023-03-03T05:46:42;23.30;50.30
39751;DHT22;37579;51.074;17.004;2023-03-03T05:49:08;23.40;51.00
39751;DHT22;37579;51.074;17.004;2023-03-03T05:51:34;23.30;50.30
39751;DHT22;37579;51.074;17.004;2023-03-03T05:53:59;23.30;50.30
39751;DHT22;37579;51.074;17.004;2023-03-03T05:56:26;23.30;50.30
39751;DHT22;37579;51.074;17.004;2023-03-03T05:58:51;23.30;50.30
39751;DHT22;37579;51.074;17.004;2023-03-03T06:01:17;23.30;50.20
39751;DHT22;37579;51.074;17.004;2023-03-03T06:03:43;23.40;50.20
39751;DHT22;37579;51.074;17.004;2023-03-03T06:06:09;23.40;50.40
39751;DHT22;37579;51.074;17.004;2023-03-03T06:08:35;23.40;50.80
39751;DHT22;37579;51.074;17.004;2023-03-03T06:11:01;23.40;51.00
39751;DHT22;37579;51.074;17.004;2023-03-03T06:13:27;23.40;51.60
39751;DHT22;37579;51.074;17.004;2023-03-03T06:15:53;23.40;51.70
39751;DHT22;37579;51.074;17.004;2023-03-03T06:18:19;23.40;51.30
39751;DHT22;37579;51.074;17.004;2023-03-03T06:20:49;23.40;51.00
39751;DHT22;37579;51.074;17.004;2023-03-03T06:23:15;23.40;51.10
39751;DHT22;37579;51.074;17.004;2023-03-03T06:25:41;23.40;51.00
39751;DHT22;37579;51.074;17.004;2023-03-03T06:28:07;23.40;51.10
39751;DHT22;37579;51.074;17.004;2023-03-03T06:30:33;23.40;51.10
39751;DHT22;37579;51.074;17.004;2023-03-03T06:32:59;23.40;51.40
39751;DHT22;37579;51.074;17.004;2023-03-03T06:35:24;23.40;51.50
39751;DHT22;37579;51.074;17.004;2023-03-03T06:37:50;23.40;51.70
39751;DHT22;37579;51.074;17.004;2023-03-03T06:40:16;23.40;51.80
39751;DHT22;37579;51.074;17.004;2023-03-03T06:42:42;23.30;52.40
39751;DHT22;37579;51.074;17.004;2023-03-03T06:45:09;23.30;51.60
39751;DHT22;37579;51.074;17.004;2023-03-03T06:47:35;23.30;51.00
39751;DHT22;37579;51.074;17.004;2023-03-03T06:50:01;23.30;51.00
39751;DHT22;37579;51.074;17.004;2023-03-03T06:52:27;23.30;51.10
39751;DHT22;37579;51.074;17.004;2023-03-03T06:54:55;23.30;51.20
39751;DHT22;37579;51.074;17.004;2023-03-03T06:57:32;23.30;51.30
39751;DHT22;37579;51.074;17.004;2023-03-03T07:00:18;23.30;51.30
39751;DHT22;37579;51.074;17.004;2023-03-03T07:03:14;23.30;51.30
39751;DHT22;37579;51.074;17.004;2023-03-03T07:05:41;23.20;51.20
39751;DHT22;37579;51.074;17.004;2023-03-03T07:08:19;23.30;51.30
39751;DHT22;37579;51.074;17.004;2023-03-03T07:10:45;23.20;51.30
39751;DHT22;37579;51.074;17.004;2023-03-03T07:13:23;23.20;51.50
39751;DHT22;37579;51.074;17.004;2023-03-03T07:15:51;23.20;51.50
39751;DHT22;37579;51.074;17.004;2023-03-03T07:18:38;23.20;51.40
39751;DHT22;37579;51.074;17.004;2023-03-03T07:21:13;23.20;51.30
39751;DHT22;37579;51.074;17.004;2023-03-03T07:23:40;23.20;51.10
39751;DHT22;37579;51.074;17.004;2023-03-03T07:26:15;23.10;51.10
39751;DHT22;37579;51.074;17.004;2023-03-03T07:28:43;23.10;50.80
39751;DHT22;37579;51.074;17.004;2023-03-03T07:33:58;23.10;50.40
39751;DHT22;37579;51.074;17.004;2023-03-03T07:36:35;23.10;50.60
39751;DHT22;37579;51.074;17.004;2023-03-03T07:39:50;23.10;50.90
39751;DHT22;37579;51.074;17.004;2023-03-03T07:42:25;23.10;52.20
39751;DHT22;37579;51.074;17.004;2023-03-03T07:45:26;23.20;51.20
39751;DHT22;37579;51.074;17.004;2023-03-03T07:48:23;23.10;50.90
39751;DHT22;37579;51.074;17.004;2023-03-03T07:50:44;23.20;50.80
39751;DHT22;37579;51.074;17.004;2023-03-03T07:53:26;23.10;50.60
39751;DHT22;37579;51.074;17.004;2023-03-03T07:55:53;23.20;50.50
39751;DHT22;37579;51.074;17.004;2023-03-03T07:58:35;23.30;50.40
39751;DHT22;37579;51.074;17.004;2023-03-03T08:03:46;23.20;50.20
39751;DHT22;37579;51.074;17.004;2023-03-03T08:09:34;23.20;50.00
39751;DHT22;37579;51.074;17.004;2023-03-03T08:14:43;23.30;50.50
39751;DHT22;37579;51.074;17.004;2023-03-03T08:17:34;23.30;50.70
39751;DHT22;37579;51.074;17.004;2023-03-03T08:20:54;23.30;51.20
39751;DHT22;37579;51.074;17.004;2023-03-03T08:22:54;23.30;51.50
39751;DHT22;37579;51.074;17.004;2023-03-03T08:25:20;23.30;51.60
39751;DHT22;37579;51.074;17.004;2023-03-03T08:27:45;23.30;51.60
39751;DHT22;37579;51.074;17.004;2023-03-03T08:30:11;23.30;51.70
39751;DHT22;37579;51.074;17.004;2023-03-03T08:32:37;23.30;51.80
39751;DHT22;37579;51.074;17.004;2023-03-03T08:35:03;23.30;51.80
39751;DHT22;37579;51.074;17.004;2023-03-03T08:37:29;23.30;51.90
39751;DHT22;37579;51.074;17.004;2023-03-03T08:39:55;23.30;52.00
39751;DHT22;37579;51.074;17.004;2023-03-03T08:42:21;23.30;52.30
39751;DHT22;37579;51.074;17.004;2023-03-03T08:44:46;23.30;52.70
39751;DHT22;37579;51.074;17.004;2023-03-03T08:47:12;23.30;52.90
39751;DHT22;37579;51.074;17.004;2023-03-03T08:49:38;23.40;52.90
39751;DHT22;37579;51.074;17.004;2023-03-03T08:52:04;23.40;53.10
39751;DHT22;37579;51.074;17.004;2023-03-03T08:54:30;23.40;53.00
39751;DHT22;37579;51.074;17.004;2023-03-03T08:56:56;23.40;53.10
39751;DHT22;37579;51.074;17.004;2023-03-03T08:59:22;23.40;53.30
39751;DHT22;37579;51.074;17.004;2023-03-03T09:01:48;23.40;53.20
39751;DHT22;37579;51.074;17.004;2023-03-03T09:04:14;23.40;52.80
39751;DHT22;37579;51.074;17.004;2023-03-03T09:06:40;23.40;52.50
39751;DHT22;37579;51.074;17.004;2023-03-03T09:09:05;23.40;52.40
39751;DHT22;37579;51.074;17.004;2023-03-03T09:11:32;23.40;52.40
39751;DHT22;37579;51.074;17.004;2023-03-03T09:14:15;23.40;52.50
39751;DHT22;37579;51.074;17.004;2023-03-03T09:16:50;23.40;52.30
39751;DHT22;37579;51.074;17.004;2023-03-03T09:19:29;23.40;52.20
39751;DHT22;37579;51.074;17.004;2023-03-03T09:22:21;23.40;52.00
39751;DHT22;37579;51.074;17.004;2023-03-03T09:24:48;23.40;52.00
39751;DHT22;37579;51.074;17.004;2023-03-03T09:27:22;23.40;52.00
39751;DHT22;37579;51.074;17.004;2023-03-03T09:29:50;23.40;51.90
39751;DHT22;37579;51.074;17.004;2023-03-03T09:32:33;23.40;51.90
39751;DHT22;37579;51.074;17.004;2023-03-03T09:37:52;23.40;52.30
39751;DHT22;37579;51.074;17.004;2023-03-03T09:43:16;23.40;53.20
39751;DHT22;37579;51.074;17.004;2023-03-03T09:56:43;23.40;56.80
39751;DHT22;37579;51.074;17.004;2023-03-03T09:59:32;23.30;56.30
39751;DHT22;37579;51.074;17.004;2023-03-03T10:08:05;23.10;55.70
39751;DHT22;37579;51.074;17.004;2023-03-03T10:19:01;22.90;55.40
39751;DHT22;37579;51.074;17.004;2023-03-03T10:24:30;22.80;55.20
39751;DHT22;37579;51.074;17.004;2023-03-03T10:46:07;22.80;54.50
39751;DHT22;37579;51.074;17.004;2023-03-03T10:51:17;22.70;54.40
39751;DHT22;37579;51.074;17.004;2023-03-03T11:04:50;22.80;53.70
39751;DHT22;37579;51.074;17.004;2023-03-03T11:15:00;23.00;53.50
39751;DHT22;37579;51.074;17.004;2023-03-03T11:18:06;22.90;53.20
39751;DHT22;37579;51.074;17.004;2023-03-03T11:21:03;23.00;53.10
39751;DHT22;37579;51.074;17.004;2023-03-03T11:26:29;23.00;52.80
39751;DHT22;37579;51.074;17.004;2023-03-03T11:37:28;23.10;52.70
39751;DHT22;37579;51.074;17.004;2023-03-03T11:40:09;23.10;52.40
39751;DHT22;37579;51.074;17.004;2023-03-03T11:45:36;23.10;52.30
39751;DHT22;37579;51.074;17.004;2023-03-03T11:50:35;23.10;52.20
39751;DHT22;37579;51.074;17.004;2023-03-03T11:56:21;23.10;52.10
39751;DHT22;37579;51.074;17.004;2023-03-03T11:58:53;23.10;51.90
39751;DHT22;37579;51.074;17.004;2023-03-03T12:01:32;23.20;51.90
39751;DHT22;37579;51.074;17.004;2023-03-03T12:04:13;23.10;51.90
39751;DHT22;37579;51.074;17.004;2023-03-03T12:07:13;23.10;51.90
39751;DHT22;37579;51.074;17.004;2023-03-03T12:12:55;23.10;52.40
39751;DHT22;37579;51.074;17.004;2023-03-03T12:15:54;23.10;52.50
39751;DHT22;37579;51.074;17.004;2023-03-03T12:19:12;23.10;52.50
39751;DHT22;37579;51.074;17.004;2023-03-03T12:35:25;23.10;53.80
39751;DHT22;37579;51.074;17.004;2023-03-03T12:41:20;23.10;54.10
39751;DHT22;37579;51.074;17.004;2023-03-03T12:49:09;23.10;54.20
39751;DHT22;37579;51.074;17.004;2023-03-03T12:54:38;23.10;53.40
39751;DHT22;37579;51.074;17.004;2023-03-03T12:57:50;23.10;53.30
39751;DHT22;37579;51.074;17.004;2023-03-03T13:00:27;23.00;53.30
39751;DHT22;37579;51.074;17.004;2023-03-03T13:11:09;23.00;53.30
39751;DHT22;37579;51.074;17.004;2023-03-03T13:13:47;23.00;53.30
39751;DHT22;37579;51.074;17.004;2023-03-03T13:16:24;23.10;53.30
39751;DHT22;37579;51.074;17.004;2023-03-03T13:21:51;23.10;53.20
39751;DHT22;37579;51.074;17.004;2023-03-03T13:26:53;23.10;53.00
39751;DHT22;37579;51.074;17.004;2023-03-03T13:29:34;23.10;53.00
39751;DHT22;37579;51.074;17.004;2023-03-03T13:32:18;23.00;52.90
39751;DHT22;37579;51.074;17.004;2023-03-03T13:34:54;23.10;53.00
39751;DHT22;37579;51.074;17.004;2023-03-03T13:40:00;23.10;52.80
39751;DHT22;37579;51.074;17.004;2023-03-03T13:44:57;23.10;52.80
39751;DHT22;37579;51.074;17.004;2023-03-03T13:49:56;23.10;52.70
39751;DHT22;37579;51.074;17.004;2023-03-03T13:52:27;23.00;52.50
39751;DHT22;37579;51.074;17.004;2023-03-03T14:06:16;23.00;52.20
39751;DHT22;37579;51.074;17.004;2023-03-03T14:08:59;23.10;52.10
39751;DHT22;37579;51.074;17.004;2023-03-03T14:16:54;23.00;52.00
39751;DHT22;37579;51.074;17.004;2023-03-03T14:25:14;23.00;52.00
39751;DHT22;37579;51.074;17.004;2023-03-03T14:38:42;23.00;51.70
39751;DHT22;37579;51.074;17.004;2023-03-03T14:47:05;23.00;51.80
39751;DHT22;37579;51.074;17.004;2023-03-03T14:49:38;23.00;51.40
39751;DHT22;37579;51.074;17.004;2023-03-03T14:52:19;23.00;51.00
39751;DHT22;37579;51.074;17.004;2023-03-03T14:54:48;23.00;50.70
39751;DHT22;37579;51.074;17.004;2023-03-03T15:00:04;23.00;50.60
39751;DHT22;37579;51.074;17.004;2023-03-03T15:03:15;22.90;50.60
39751;DHT22;37579;51.074;17.004;2023-03-03T15:05:51;23.00;50.80
39751;DHT22;37579;51.074;17.004;2023-03-03T15:08:27;22.90;50.80
39751;DHT22;37579;51.074;17.004;2023-03-03T15:10:54;23.00;50.50
39751;DHT22;37579;51.074;17.004;2023-03-03T15:13:35;23.00;50.60
39751;DHT22;37579;51.074;17.004;2023-03-03T15:16:08;23.10;50.60
39751;DHT22;37579;51.074;17.004;2023-03-03T15:18:59;23.10;50.40
39751;DHT22;37579;51.074;17.004;2023-03-03T15:21:34;23.10;50.40
39751;DHT22;37579;51.074;17.004;2023-03-03T15:24:22;23.20;50.40
39751;DHT22;37579;51.074;17.004;2023-03-03T15:32:43;23.20;50.50
39751;DHT22;37579;51.074;17.004;2023-03-03T15:35:33;23.30;50.00
39751;DHT22;37579;51.074;17.004;2023-03-03T15:40:47;23.40;49.70
39751;DHT22;37579;51.074;17.004;2023-03-03T15:54:27;23.80;50.00
39751;DHT22;37579;51.074;17.004;2023-03-03T15:57:00;23.90;49.80
39751;DHT22;37579;51.074;17.004;2023-03-03T16:16:39;24.10;48.80
39751;DHT22;37579;51.074;17.004;2023-03-03T16:19:31;24.10;48.80
39751;DHT22;37579;51.074;17.004;2023-03-03T16:25:02;24.10;48.90
39751;DHT22;37579;51.074;17.004;2023-03-03T16:33:07;24.20;49.20
39751;DHT22;37579;51.074;17.004;2023-03-03T16:35:42;24.20;49.20
39751;DHT22;37579;51.074;17.004;2023-03-03T16:38:18;24.20;49.20
39751;DHT22;37579;51.074;17.004;2023-03-03T16:40:57;24.20;49.20
39751;DHT22;37579;51.074;17.004;2023-03-03T16:43:53;24.20;49.30
39751;DHT22;37579;51.074;17.004;2023-03-03T16:46:38;24.20;49.40
39751;DHT22;37579;51.074;17.004;2023-03-03T16:52:13;24.10;49.60
39751;DHT22;37579;51.074;17.004;2023-03-03T16:55:00;24.10;49.70
39751;DHT22;37579;51.074;17.004;2023-03-03T16:57:46;24.10;49.80
39751;DHT22;37579;51.074;17.004;2023-03-03T17:00:26;24.00;49.90
39751;DHT22;37579;51.074;17.004;2023-03-03T17:06:03;24.00;50.00
39751;DHT22;37579;51.074;17.004;2023-03-03T17:17:04;23.90;50.50
39751;DHT22;37579;51.074;17.004;2023-03-03T17:25:20;23.90;50.70
39751;DHT22;37579;51.074;17.004;2023-03-03T17:32:57;23.80;50.30
39751;DHT22;37579;51.074;17.004;2023-03-03T17:44:34;23.80;50.40
39751;DHT22;37579;51.074;17.004;2023-03-03T17:47:07;23.80;50.40
39751;DHT22;37579;51.074;17.004;2023-03-03T17:50:00;23.80;50.40
39751;DHT22;37579;51.074;17.004;2023-03-03T17:58:49;23.60;50.50
39751;DHT22;37579;51.074;17.004;2023-03-03T18:16:28;23.90;50.80
39751;DHT22;37579;51.074;17.004;2023-03-03T18:54:00;24.10;51.00
39751;DHT22;37579;51.074;17.004;2023-03-03T18:59:07;24.10;51.20
39751;DHT22;37579;51.074;17.004;2023-03-03T19:01:44;24.10;51.30
39751;DHT22;37579;51.074;17.004;2023-03-03T19:09:05;24.10;51.10
39751;DHT22;37579;51.074;17.004;2023-03-03T19:11:51;24.10;51.40
39751;DHT22;37579;51.074;17.004;2023-03-03T19:16:55;24.10;51.00
39751;DHT22;37579;51.074;17.004;2023-03-03T19:19:29;24.00;50.90
39751;DHT22;37579;51.074;17.004;2023-03-03T19:22:29;24.00;50.90
39751;DHT22;37579;51.074;17.004;2023-03-03T19:25:25;24.00;50.90
39751;DHT22;37579;51.074;17.004;2023-03-03T19:35:50;23.90;51.30
39751;DHT22;37579;51.074;17.004;2023-03-03T19:52:23;23.90;52.70
39751;DHT22;37579;51.074;17.004;2023-03-03T20:01:20;23.90;52.00
39751;DHT22;37579;51.074;17.004;2023-03-03T20:09:36;24.00;51.40
39751;DHT22;37579;51.074;17.004;2023-03-03T20:24:33;24.10;50.90
39751;DHT22;37579;51.074;17.004;2023-03-03T20:36:06;24.10;51.00
39751;DHT22;37579;51.074;17.004;2023-03-03T21:03:38;24.10;51.80
39751;DHT22;37579;51.074;17.004;2023-03-03T21:11:17;24.10;51.70
39751;DHT22;37579;51.074;17.004;2023-03-03T21:13:46;24.10;51.70
39751;DHT22;37579;51.074;17.004;2023-03-03T21:21:28;24.20;51.50
39751;DHT22;37579;51.074;17.004;2023-03-03T21:23:55;24.20;51.50
39751;DHT22;37579;51.074;17.004;2023-03-03T21:29:30;24.20;51.40
39751;DHT22;37579;51.074;17.004;2023-03-03T21:31:58;24.10;51.40
39751;DHT22;37579;51.074;17.004;2023-03-03T21:34:36;24.10;51.50
39751;DHT22;37579;51.074;17.004;2023-03-03T21:37:05;24.10;51.50
39751;DHT22;37579;51.074;17.004;2023-03-03T21:39:38;24.10;51.50
39751;DHT22;37579;51.074;17.004;2023-03-03T21:42:06;24.10;51.60
39751;DHT22;37579;51.074;17.004;2023-03-03T21:44:38;24.00;51.60
39751;DHT22;37579;51.074;17.004;2023-03-03T21:47:07;24.00;51.60
39751;DHT22;37579;51.074;17.004;2023-03-03T21:49:33;24.00;51.60
39751;DHT22;37579;51.074;17.004;2023-03-03T21:52:00;23.90;51.60
39751;DHT22;37579;51.074;17.004;2023-03-03T21:54:26;23.90;51.60
39751;DHT22;37579;51.074;17.004;2023-03-03T21:56:52;23.90;51.70
39751;DHT22;37579;51.074;17.004;2023-03-03T21:59:18;23.90;51.70
39751;DHT22;37579;51.074;17.004;2023-03-03T22:01:45;23.90;51.60
39751;DHT22;37579;51.074;17.004;2023-03-03T22:04:11;23.90;51.50
39751;DHT22;37579;51.074;17.004;2023-03-03T22:06:36;23.80;51.40
39751;DHT22;37579;51.074;17.004;2023-03-03T22:09:06;23.80;51.30
39751;DHT22;37579;51.074;17.004;2023-03-03T22:11:32;23.80;51.30
39751;DHT22;37579;51.074;17.004;2023-03-03T22:13:58;23.80;51.30
39751;DHT22;37579;51.074;17.004;2023-03-03T22:16:24;23.70;51.30
39751;DHT22;37579;51.074;17.004;2023-03-03T22:18:50;23.80;51.30
39751;DHT22;37579;51.074;17.004;2023-03-03T22:21:16;23.70;51.30
39751;DHT22;37579;51.074;17.004;2023-03-03T22:23:42;23.70;51.30
39751;DHT22;37579;51.074;17.004;2023-03-03T22:26:08;23.70;51.20
39751;DHT22;37579;51.074;17.004;2023-03-03T22:28:34;23.70;51.80
39751;DHT22;37579;51.074;17.004;2023-03-03T22:31:00;23.60;51.20
39751;DHT22;37579;51.074;17.004;2023-03-03T22:33:26;23.60;51.20
39751;DHT22;37579;51.074;17.004;2023-03-03T22:35:52;23.60;51.20
39751;DHT22;37579;51.074;17.004;2023-03-03T22:38:17;23.60;51.20
39751;DHT22;37579;51.074;17.004;2023-03-03T22:40:43;23.50;51.20
39751;DHT22;37579;51.074;17.004;2023-03-03T22:43:09;23.50;51.20
39751;DHT22;37579;51.074;17.004;2023-03-03T22:45:36;23.50;51.20
39751;DHT22;37579;51.074;17.004;2023-03-03T22:48:02;23.50;51.20
39751;DHT22;37579;51.074;17.004;2023-03-03T22:50:28;23.50;51.30
39751;DHT22;37579;51.074;17.004;2023-03-03T22:52:54;23.50;51.30
39751;DHT22;37579;51.074;17.004;2023-03-03T22:55:20;23.50;51.20
39751;DHT22;37579;51.074;17.004;2023-03-03T22:57:46;23.50;51.20
39751;DHT22;37579;51.074;17.004;2023-03-03T23:00:13;23.50;51.20
39751;DHT22;37579;51.074;17.004;2023-03-03T23:02:40;23.50;51.30
39751;DHT22;37579;51.074;17.004;2023-03-03T23:05:06;23.40;51.30
39751;DHT22;37579;51.074;17.004;2023-03-03T23:07:37;23.40;51.30
39751;DHT22;37579;51.074;17.004;2023-03-03T23:10:05;23.40;52.10
39751;DHT22;37579;51.074;17.004;2023-03-03T23:12:32;23.40;51.50
39751;DHT22;37579;51.074;17.004;2023-03-03T23:14:57;23.40;51.50